createdAt,value
2022-09-25T00:01:53.176Z,1.07
2022-09-25T00:04:21.298Z,1.00
2022-09-25T00:06:49.257Z,1.23
2022-09-25T00:09:20.499Z,1.07
2022-09-25T00:11:47.803Z,0.80
2022-09-25T00:14:15.147Z,0.90
2022-09-25T00:16:42.495Z,1.03
2022-09-25T00:19:30.559Z,1.10
2022-09-25T00:21:57.835Z,1.03
2022-09-25T00:24:25.183Z,1.00
2022-09-25T00:26:52.466Z,0.90
2022-09-25T00:29:20.764Z,0.93
2022-09-25T00:31:48.108Z,1.20
2022-09-25T00:34:15.457Z,1.20
2022-09-25T00:36:42.756Z,0.93
2022-09-25T00:39:10.392Z,1.00
2022-09-25T00:41:37.781Z,1.03
2022-09-25T00:44:05.391Z,1.00
2022-09-25T00:46:35.530Z,1.00
2022-09-25T00:49:05.730Z,0.93
2022-09-25T00:51:40.919Z,0.80
2022-09-25T00:54:11.465Z,0.87
2022-09-25T00:56:40.515Z,1.27
2022-09-25T00:59:11.068Z,0.90
2022-09-25T01:01:38.631Z,1.10
2022-09-25T01:04:06.488Z,1.00
2022-09-25T01:06:34.621Z,1.30
2022-09-25T01:09:02.482Z,1.10
2022-09-25T01:11:31.126Z,1.10
2022-09-25T01:13:59.814Z,1.20
2022-09-25T01:16:39.215Z,1.00
2022-09-25T01:19:09.302Z,1.10
2022-09-25T01:21:42.705Z,1.33
2022-09-25T01:24:24.321Z,1.13
2022-09-25T01:27:11.907Z,1.00
2022-09-25T01:30:05.896Z,1.20
2022-09-25T01:32:34.861Z,0.90
2022-09-25T01:35:14.340Z,1.10
2022-09-25T01:38:00.298Z,0.93
2022-09-25T01:40:33.439Z,1.00
2022-09-25T01:43:05.717Z,1.23
2022-09-25T01:45:42.639Z,1.20
2022-09-25T01:48:11.352Z,1.00
2022-09-25T01:50:48.640Z,0.70
2022-09-25T01:53:18.912Z,1.10
2022-09-25T01:55:49.285Z,1.23
2022-09-25T01:58:22.974Z,1.07
2022-09-25T02:00:54.630Z,0.90
2022-09-25T02:03:27.763Z,0.90
2022-09-25T02:06:01.276Z,0.90
2022-09-25T02:08:44.117Z,1.10
2022-09-25T02:11:12.180Z,1.03
2022-09-25T02:13:44.423Z,0.90
2022-09-25T02:16:13.725Z,1.10
2022-09-25T02:18:59.966Z,0.87
2022-09-25T02:21:36.771Z,1.03
2022-09-25T02:24:25.707Z,0.87
2022-09-25T02:26:53.391Z,0.90
2022-09-25T02:29:21.046Z,0.93
2022-09-25T02:31:59.860Z,0.80
2022-09-25T02:34:27.591Z,1.00
2022-09-25T02:36:55.484Z,1.03
2022-09-25T02:39:25.382Z,1.10
2022-09-25T02:42:11.617Z,1.00
2022-09-25T02:44:57.662Z,0.90
2022-09-25T02:47:34.652Z,1.00
2022-09-25T02:50:17.101Z,1.00
2022-09-25T02:52:45.065Z,0.90
2022-09-25T02:55:18.156Z,0.90
2022-09-25T02:58:01.371Z,0.87
2022-09-25T03:00:29.613Z,0.90
2022-09-25T03:03:03.945Z,0.97
2022-09-25T03:05:31.862Z,1.00
2022-09-25T03:08:18.008Z,0.80
2022-09-25T03:10:46.613Z,0.80
2022-09-25T03:13:22.189Z,0.80
2022-09-25T03:15:56.466Z,1.00
2022-09-25T03:18:24.499Z,0.97
2022-09-25T03:20:52.583Z,0.90
2022-09-25T03:23:19.965Z,0.80
2022-09-25T03:25:50.246Z,0.70
2022-09-25T03:28:18.581Z,0.80
2022-09-25T03:30:55.687Z,0.80
2022-09-25T03:33:23.095Z,0.80
2022-09-25T03:36:00.189Z,0.77
2022-09-25T03:38:27.492Z,0.90
2022-09-25T03:40:54.870Z,0.80
2022-09-25T03:43:22.211Z,0.90
2022-09-25T03:45:49.656Z,0.80
2022-09-25T03:48:17.910Z,0.80
2022-09-25T03:50:46.203Z,0.80
2022-09-25T03:53:13.817Z,0.80
2022-09-25T03:55:41.100Z,0.70
2022-09-25T03:58:08.363Z,0.70
2022-09-25T04:00:35.679Z,1.00
2022-09-25T04:03:02.930Z,0.80
2022-09-25T04:05:30.238Z,0.77
2022-09-25T04:07:58.042Z,0.90
2022-09-25T04:10:25.317Z,0.80
2022-09-25T04:12:54.372Z,0.80
2022-09-25T04:15:25.662Z,0.90
2022-09-25T04:17:53.184Z,0.80
2022-09-25T04:20:20.596Z,1.00
2022-09-25T04:22:47.964Z,0.70
2022-09-25T04:25:16.265Z,0.90
2022-09-25T04:27:46.284Z,0.80
2022-09-25T04:30:14.007Z,1.00
2022-09-25T04:33:00.004Z,0.80
2022-09-25T04:35:27.583Z,0.80
2022-09-25T04:37:55.063Z,0.80
2022-09-25T04:40:22.368Z,0.90
2022-09-25T04:42:49.684Z,0.77
2022-09-25T04:45:16.976Z,0.80
2022-09-25T04:47:44.261Z,0.80
2022-09-25T04:50:11.533Z,0.90
2022-09-25T04:52:39.107Z,0.70
2022-09-25T04:55:06.871Z,0.60
2022-09-25T04:57:57.247Z,0.70
2022-09-25T05:00:21.837Z,0.73
2022-09-25T05:02:49.479Z,0.90
2022-09-25T05:05:17.203Z,0.70
2022-09-25T05:07:57.381Z,0.90
2022-09-25T05:10:27.347Z,1.00
2022-09-25T05:13:01.703Z,0.80
2022-09-25T05:15:30.010Z,0.80
2022-09-25T05:18:20.731Z,1.00
2022-09-25T05:20:48.639Z,0.80
2022-09-25T05:23:16.352Z,0.80
2022-09-25T05:25:43.847Z,0.80
2022-09-25T05:28:11.562Z,0.80
2022-09-25T05:30:39.585Z,0.70
2022-09-25T05:33:06.894Z,0.80
2022-09-25T05:35:34.536Z,0.80
2022-09-25T05:38:01.944Z,0.90
2022-09-25T05:40:29.309Z,1.00
2022-09-25T05:42:57.034Z,0.97
2022-09-25T05:45:24.329Z,1.03
2022-09-25T05:48:08.134Z,1.10
2022-09-25T05:50:35.825Z,0.80
2022-09-25T05:53:05.032Z,0.93
2022-09-25T05:55:32.448Z,1.10
2022-09-25T05:58:03.401Z,1.00
2022-09-25T06:00:33.082Z,1.00
2022-09-25T06:03:01.415Z,0.90
2022-09-25T06:05:28.836Z,1.10
2022-09-25T06:07:56.214Z,0.90
2022-09-25T06:10:26.015Z,1.00
2022-09-25T06:12:58.577Z,0.90
2022-09-25T06:15:29.390Z,0.90
2022-09-25T06:17:57.372Z,1.00
2022-09-25T06:20:25.164Z,0.90
2022-09-25T06:22:53.414Z,1.00
2022-09-25T06:25:21.991Z,1.00
2022-09-25T06:27:49.669Z,0.97
2022-09-25T06:30:17.025Z,0.90
2022-09-25T06:32:44.407Z,0.90
2022-09-25T06:35:11.737Z,1.00
2022-09-25T06:37:39.011Z,1.00
2022-09-25T06:40:06.849Z,0.90
2022-09-25T06:42:35.231Z,1.10
2022-09-25T06:45:02.602Z,0.97
2022-09-25T06:47:29.864Z,1.00
2022-09-25T06:49:57.941Z,1.00
2022-09-25T06:52:25.266Z,1.00
2022-09-25T06:54:52.511Z,0.90
2022-09-25T06:57:19.790Z,0.90
2022-09-25T06:59:47.066Z,0.80
2022-09-25T07:02:33.251Z,1.00
2022-09-25T07:05:00.594Z,1.10
2022-09-25T07:07:29.784Z,1.27
2022-09-25T07:09:57.079Z,1.10
2022-09-25T07:12:24.344Z,1.10
2022-09-25T07:14:51.603Z,1.10
2022-09-25T07:17:18.898Z,1.10
2022-09-25T07:19:46.166Z,1.20
2022-09-25T07:22:13.406Z,1.30
2022-09-25T07:24:40.724Z,1.00
2022-09-25T07:27:08.004Z,1.10
2022-09-25T07:29:35.610Z,1.00
2022-09-25T07:32:04.737Z,1.00
2022-09-25T07:34:32.194Z,1.00
2022-09-25T07:36:59.431Z,1.10
2022-09-25T07:39:26.700Z,1.30
2022-09-25T07:41:55.051Z,1.07
2022-09-25T07:44:36.080Z,1.10
2022-09-25T07:47:05.263Z,1.10
2022-09-25T07:49:32.509Z,1.07
2022-09-25T07:51:59.800Z,1.00
2022-09-25T07:54:27.103Z,1.10
2022-09-25T07:56:54.609Z,1.30
2022-09-25T07:59:21.891Z,1.00
2022-09-25T08:01:53.762Z,0.90
2022-09-25T08:04:21.664Z,1.07
2022-09-25T08:06:48.919Z,1.13
2022-09-25T08:09:16.162Z,1.30
2022-09-25T08:11:44.018Z,1.37
2022-09-25T08:14:14.433Z,1.20
2022-09-25T08:16:42.827Z,1.10
2022-09-25T08:19:11.424Z,1.17
2022-09-25T08:21:38.686Z,1.33
2022-09-25T08:24:06.116Z,1.30
2022-09-25T08:26:33.467Z,1.20
2022-09-25T08:29:00.870Z,1.10
2022-09-25T08:31:28.686Z,1.23
2022-09-25T08:33:56.091Z,1.10
2022-09-25T08:36:23.759Z,1.00
2022-09-25T08:38:56.086Z,1.00
2022-09-25T08:41:25.150Z,1.10
2022-09-25T08:44:01.053Z,1.10
2022-09-25T08:47:06.566Z,1.00
2022-09-25T08:49:57.456Z,1.07
2022-09-25T08:52:24.925Z,1.10
2022-09-25T08:54:52.310Z,1.20
2022-09-25T08:57:19.654Z,1.40
2022-09-25T08:59:49.461Z,1.00
2022-09-25T09:02:21.592Z,1.17
2022-09-25T09:04:51.573Z,1.20
2022-09-25T09:07:27.503Z,1.30
2022-09-25T09:10:01.731Z,1.13
2022-09-25T09:12:35.972Z,1.20
2022-09-25T09:15:15.820Z,1.30
2022-09-25T09:17:43.446Z,1.23
2022-09-25T09:20:16.362Z,1.00
2022-09-25T09:22:46.982Z,1.20
2022-09-25T09:25:17.366Z,1.40
2022-09-25T09:28:00.073Z,1.20
2022-09-25T09:30:27.314Z,1.10
2022-09-25T09:32:57.640Z,1.20
2022-09-25T09:35:35.037Z,1.40
2022-09-25T09:38:17.665Z,1.23
2022-09-25T09:40:47.169Z,1.10
2022-09-25T09:43:30.798Z,1.23
2022-09-25T09:46:03.869Z,1.20
2022-09-25T09:48:41.538Z,1.10
2022-09-25T09:51:24.931Z,1.20
2022-09-25T09:53:54.500Z,1.00
2022-09-25T09:56:21.736Z,0.93
2022-09-25T09:58:50.886Z,1.20
2022-09-25T10:01:40.220Z,1.10
2022-09-25T10:04:16.478Z,0.97
2022-09-25T10:07:00.143Z,1.10
2022-09-25T10:09:28.254Z,1.00
2022-09-25T10:12:03.611Z,1.03
2022-09-25T10:14:33.871Z,1.20
2022-09-25T10:17:02.432Z,1.20
2022-09-25T10:19:29.876Z,1.13
2022-09-25T10:22:16.516Z,0.80
2022-09-25T10:24:51.599Z,1.07
2022-09-25T10:27:36.297Z,0.80
2022-09-25T10:30:09.777Z,1.00
2022-09-25T10:32:43.146Z,0.90
2022-09-25T10:35:18.699Z,0.80
2022-09-25T10:37:48.778Z,1.00
2022-09-25T10:40:26.732Z,0.90
2022-09-25T10:43:25.957Z,0.80
2022-09-25T10:46:12.349Z,0.83
2022-09-25T10:48:58.743Z,0.90
2022-09-25T10:51:26.378Z,0.87
2022-09-25T10:53:57.498Z,0.70
2022-09-25T10:56:31.063Z,0.87
2022-09-25T10:58:59.012Z,0.83
2022-09-25T11:01:31.368Z,0.90
2022-09-25T11:03:59.211Z,1.00
2022-09-25T11:06:27.610Z,1.00
2022-09-25T11:09:18.259Z,1.00
2022-09-25T11:11:47.073Z,0.90
2022-09-25T11:14:32.644Z,0.90
2022-09-25T11:17:01.051Z,0.80
2022-09-25T11:19:38.250Z,0.90
2022-09-25T11:22:11.773Z,0.90
2022-09-25T11:24:47.140Z,0.93
2022-09-25T11:27:20.347Z,0.90
2022-09-25T11:30:06.581Z,0.90
2022-09-25T11:32:37.070Z,0.90
2022-09-25T11:35:19.966Z,0.90
2022-09-25T11:37:55.438Z,0.80
2022-09-25T11:41:08.466Z,0.90
2022-09-25T11:43:40.298Z,0.90
2022-09-25T11:46:14.614Z,0.90
2022-09-25T11:48:56.443Z,0.90
2022-09-25T11:51:35.996Z,0.90
2022-09-25T11:54:37.449Z,0.90
2022-09-25T11:57:05.542Z,0.90
2022-09-25T11:59:51.670Z,0.90
2022-09-25T12:02:30.202Z,1.10
2022-09-25T12:05:04.915Z,1.10
2022-09-25T12:07:35.883Z,1.10
2022-09-25T12:10:06.292Z,1.00
2022-09-25T12:12:41.630Z,1.20
2022-09-25T12:15:17.431Z,1.47
2022-09-25T12:17:48.853Z,1.10
2022-09-25T12:20:39.172Z,1.20
2022-09-25T12:23:22.329Z,1.10
2022-09-25T12:25:52.781Z,1.10
2022-09-25T12:28:40.002Z,1.10
2022-09-25T12:31:15.461Z,1.10
2022-09-25T12:33:53.858Z,1.17
2022-09-25T12:36:23.293Z,1.07
2022-09-25T12:38:55.728Z,1.57
2022-09-25T12:41:29.797Z,0.90
2022-09-25T12:43:57.657Z,1.10
2022-09-25T12:46:34.277Z,1.00
2022-09-25T12:49:05.884Z,1.10
2022-09-25T12:51:38.001Z,1.10
2022-09-25T12:54:14.116Z,1.00
2022-09-25T12:56:51.945Z,1.20
2022-09-25T12:59:22.754Z,1.30
2022-09-25T13:02:19.529Z,1.20
2022-09-25T13:04:55.631Z,1.00
2022-09-25T13:07:29.633Z,1.00
2022-09-25T13:09:56.986Z,0.80
2022-09-25T13:12:40.054Z,0.93
2022-09-25T13:15:14.447Z,0.83
2022-09-25T13:17:42.417Z,0.83
2022-09-25T13:20:31.406Z,1.00
2022-09-25T13:23:17.498Z,0.90
2022-09-25T13:25:46.590Z,0.90
2022-09-25T13:28:22.793Z,0.90
2022-09-25T13:31:06.713Z,0.90
2022-09-25T13:33:58.852Z,0.83
2022-09-25T13:36:26.231Z,0.90
2022-09-25T13:39:17.329Z,0.90
2022-09-25T13:41:49.984Z,0.90
2022-09-25T13:44:37.471Z,1.00
2022-09-25T13:47:25.830Z,0.90
2022-09-25T13:49:54.100Z,0.90
2022-09-25T13:52:31.390Z,0.80
2022-09-25T13:55:14.236Z,1.00
2022-09-25T13:58:02.252Z,1.00
2022-09-25T14:00:53.349Z,1.00
2022-09-25T14:03:30.331Z,1.00
2022-09-25T14:05:58.351Z,0.90
2022-09-25T14:08:27.726Z,0.80
2022-09-25T14:10:57.205Z,0.90
2022-09-25T14:13:26.975Z,0.80
2022-09-25T14:15:56.685Z,0.90
2022-09-25T14:18:24.523Z,0.70
2022-09-25T14:20:52.804Z,0.83
2022-09-25T14:23:33.295Z,0.90
2022-09-25T14:26:01.743Z,0.80
2022-09-25T14:28:33.138Z,1.00
2022-09-25T14:31:09.612Z,0.90
2022-09-25T14:33:56.082Z,0.80
2022-09-25T14:36:42.375Z,0.80
2022-09-25T14:39:14.246Z,0.80
2022-09-25T14:41:50.639Z,0.90
2022-09-25T14:44:23.604Z,0.70
2022-09-25T14:46:52.011Z,0.90
2022-09-25T14:49:30.766Z,0.80
2022-09-25T14:52:01.170Z,0.90
2022-09-25T14:54:31.221Z,0.90
2022-09-25T14:56:59.160Z,0.80
2022-09-25T14:59:31.434Z,1.00
2022-09-25T15:02:02.671Z,0.90
2022-09-25T15:04:34.265Z,0.80
2022-09-25T15:07:13.963Z,0.90
2022-09-25T15:09:47.373Z,0.70
2022-09-25T15:12:24.377Z,0.97
2022-09-25T15:15:08.140Z,1.00
2022-09-25T15:17:43.978Z,1.10
2022-09-25T15:20:14.352Z,0.90
2022-09-25T15:22:42.895Z,1.00
2022-09-25T15:25:14.743Z,1.00
2022-09-25T15:27:42.736Z,0.90
2022-09-25T15:30:19.755Z,0.90
2022-09-25T15:32:48.959Z,1.10
2022-09-25T15:35:21.772Z,1.60
2022-09-25T15:37:49.379Z,5.03
2022-09-25T15:40:19.501Z,1.97
2022-09-25T15:42:47.747Z,1.10
2022-09-25T15:45:33.263Z,3.50
2022-09-25T15:48:01.811Z,2.30
2022-09-25T15:50:30.043Z,3.30
2022-09-25T15:52:59.290Z,2.77
2022-09-25T15:55:27.923Z,2.80
2022-09-25T15:57:56.556Z,1.80
2022-09-25T16:00:44.098Z,1.70
2022-09-25T16:03:33.103Z,1.50
2022-09-25T16:06:03.104Z,1.50
2022-09-25T16:08:32.034Z,1.90
2022-09-25T16:11:05.413Z,1.80
2022-09-25T16:13:33.190Z,1.90
2022-09-25T16:16:01.496Z,1.60
2022-09-25T16:18:39.112Z,2.50
2022-09-25T16:21:18.324Z,2.40
2022-09-25T16:23:55.722Z,1.53
2022-09-25T16:26:24.424Z,1.57
2022-09-25T16:28:57.545Z,1.60
2022-09-25T16:31:25.071Z,3.27
2022-09-25T16:33:56.018Z,2.00
2022-09-25T16:36:23.842Z,1.57
2022-09-25T16:39:09.520Z,1.93
2022-09-25T16:41:37.547Z,1.57
2022-09-25T16:44:18.883Z,2.40
2022-09-25T16:46:52.487Z,1.67
2022-09-25T16:49:20.214Z,1.90
2022-09-25T16:51:48.439Z,1.20
2022-09-25T16:54:16.719Z,1.83
2022-09-25T16:56:44.975Z,1.70
2022-09-25T16:59:22.738Z,1.40
2022-09-25T17:01:52.601Z,1.60
2022-09-25T17:04:24.085Z,1.57
2022-09-25T17:06:51.423Z,1.37
2022-09-25T17:09:18.945Z,1.50
2022-09-25T17:11:50.055Z,1.70
2022-09-25T17:14:28.716Z,1.40
2022-09-25T17:16:56.985Z,1.40
2022-09-25T17:19:24.606Z,1.50
2022-09-25T17:21:53.077Z,1.20
2022-09-25T17:24:23.168Z,1.30
2022-09-25T17:26:51.928Z,1.30
2022-09-25T17:29:19.967Z,1.30
2022-09-25T17:31:47.643Z,1.10
2022-09-25T17:34:28.243Z,0.90
2022-09-25T17:36:57.841Z,1.37
2022-09-25T17:39:25.166Z,1.20
2022-09-25T17:41:52.510Z,1.10
2022-09-25T17:44:23.283Z,1.13
2022-09-25T17:46:51.818Z,1.13
2022-09-25T17:49:19.256Z,1.10
2022-09-25T17:51:46.997Z,1.40
2022-09-25T17:54:14.265Z,1.20
2022-09-25T17:56:45.062Z,0.87
2022-09-25T17:59:12.545Z,1.17
2022-09-25T18:01:40.280Z,1.17
2022-09-25T18:04:14.925Z,1.00
2022-09-25T18:06:43.524Z,1.00
2022-09-25T18:09:11.013Z,1.00
2022-09-25T18:11:42.648Z,1.10
2022-09-25T18:14:11.177Z,1.10
2022-09-25T18:16:39.047Z,0.80
2022-09-25T18:19:25.176Z,0.90
2022-09-25T18:22:11.191Z,0.90
2022-09-25T18:24:38.546Z,0.90
2022-09-25T18:27:05.995Z,0.90
2022-09-25T18:29:36.226Z,0.97
2022-09-25T18:32:04.161Z,1.10
2022-09-25T18:34:31.510Z,0.83
2022-09-25T18:36:58.860Z,1.00
2022-09-25T18:39:26.202Z,1.20
2022-09-25T18:41:53.496Z,0.90
2022-09-25T18:44:23.384Z,1.00
2022-09-25T18:46:51.838Z,1.00
2022-09-25T18:49:19.278Z,1.30
2022-09-25T18:51:46.794Z,1.07
2022-09-25T18:54:14.753Z,0.87
2022-09-25T18:56:42.529Z,1.00
2022-09-25T18:59:09.841Z,0.90
2022-09-25T19:01:37.845Z,0.83
2022-09-25T19:04:05.904Z,0.90
2022-09-25T19:06:33.338Z,1.10
2022-09-25T19:09:01.302Z,0.80
2022-09-25T19:11:28.978Z,0.90
2022-09-25T19:13:56.468Z,1.10
2022-09-25T19:16:24.209Z,0.80
2022-09-25T19:18:51.538Z,0.80
2022-09-25T19:21:23.125Z,1.00
2022-09-25T19:23:50.859Z,0.83
2022-09-25T19:26:22.109Z,0.80
2022-09-25T19:28:49.534Z,1.00
2022-09-25T19:31:24.509Z,0.73
2022-09-25T19:33:52.949Z,0.80
2022-09-25T19:36:21.837Z,0.90
2022-09-25T19:38:49.116Z,1.03
2022-09-25T19:41:22.733Z,0.80
2022-09-25T19:43:50.011Z,0.90
2022-09-25T19:46:18.215Z,0.90
2022-09-25T19:48:46.089Z,1.07
2022-09-25T19:51:13.899Z,0.90
2022-09-25T19:53:41.596Z,0.80
2022-09-25T19:56:09.806Z,0.90
2022-09-25T19:58:38.266Z,1.10
2022-09-25T20:01:11.664Z,0.70
2022-09-25T20:03:39.446Z,0.80
2022-09-25T20:06:07.207Z,1.10
2022-09-25T20:08:34.476Z,1.00
2022-09-25T20:11:02.206Z,0.90
2022-09-25T20:13:29.535Z,0.80
2022-09-25T20:15:57.110Z,0.90
2022-09-25T20:18:24.450Z,0.90
2022-09-25T20:20:52.017Z,0.90
2022-09-25T20:23:19.295Z,1.00
2022-09-25T20:25:46.597Z,1.00
2022-09-25T20:28:13.925Z,0.90
2022-09-25T20:30:41.766Z,1.00
2022-09-25T20:33:09.100Z,0.83
2022-09-25T20:35:36.376Z,0.87
2022-09-25T20:38:03.714Z,0.80
2022-09-25T20:40:31.010Z,0.80
2022-09-25T20:42:58.317Z,1.10
2022-09-25T20:45:25.599Z,1.00
2022-09-25T20:47:54.170Z,0.80
2022-09-25T20:50:21.664Z,1.17
2022-09-25T20:52:48.933Z,1.20
2022-09-25T20:55:16.278Z,0.90
2022-09-25T20:57:43.544Z,1.00
2022-09-25T21:00:14.385Z,1.00
2022-09-25T21:02:44.337Z,0.90
2022-09-25T21:05:11.684Z,0.60
2022-09-25T21:07:39.088Z,1.00
2022-09-25T21:10:06.592Z,0.80
2022-09-25T21:12:33.869Z,1.00
2022-09-25T21:15:01.153Z,0.70
2022-09-25T21:17:28.501Z,0.80
2022-09-25T21:19:55.767Z,0.80
2022-09-25T21:22:23.251Z,0.83
2022-09-25T21:24:50.680Z,0.80
2022-09-25T21:27:17.926Z,0.90
2022-09-25T21:29:45.268Z,0.90
2022-09-25T21:32:12.541Z,0.70
2022-09-25T21:34:39.808Z,0.70
2022-09-25T21:37:07.098Z,1.00
2022-09-25T21:39:34.408Z,1.00
2022-09-25T21:42:04.734Z,0.90
2022-09-25T21:44:32.027Z,0.80
2022-09-25T21:46:59.298Z,0.90
2022-09-25T21:49:26.541Z,0.80
2022-09-25T21:51:53.828Z,0.80
2022-09-25T21:54:21.785Z,0.70
2022-09-25T21:56:49.183Z,0.80
2022-09-25T21:59:16.544Z,0.70
2022-09-25T22:01:44.311Z,0.60
2022-09-25T22:04:12.995Z,0.80
2022-09-25T22:06:41.949Z,0.90
2022-09-25T22:09:10.479Z,0.70
2022-09-25T22:11:38.357Z,0.60
2022-09-25T22:14:06.256Z,1.00
2022-09-25T22:16:37.867Z,0.97
2022-09-25T22:19:10.391Z,0.87
2022-09-25T22:21:38.141Z,0.70
2022-09-25T22:24:05.656Z,0.60
2022-09-25T22:26:34.884Z,0.80
2022-09-25T22:29:02.199Z,0.80
2022-09-25T22:31:30.538Z,0.70
2022-09-25T22:33:59.109Z,0.80
2022-09-25T22:36:27.307Z,0.70
2022-09-25T22:38:54.938Z,0.70
2022-09-25T22:41:22.619Z,0.73
2022-09-25T22:43:50.766Z,0.70
2022-09-25T22:46:18.304Z,0.80
2022-09-25T22:48:45.629Z,0.80
2022-09-25T22:51:14.358Z,0.60
2022-09-25T22:53:41.906Z,0.70
2022-09-25T22:56:09.199Z,0.80
2022-09-25T22:58:36.549Z,0.70
2022-09-25T23:01:04.904Z,0.70
2022-09-25T23:03:32.190Z,0.73
2022-09-25T23:06:03.641Z,0.73
2022-09-25T23:08:31.451Z,1.13
2022-09-25T23:11:08.854Z,0.63
2022-09-25T23:13:36.501Z,0.83
2022-09-25T23:16:05.194Z,0.97
2022-09-25T23:18:33.504Z,0.90
2022-09-25T23:21:00.769Z,0.70
2022-09-25T23:23:28.049Z,0.80
2022-09-25T23:25:55.316Z,0.70
2022-09-25T23:28:22.574Z,0.80
2022-09-25T23:30:49.997Z,1.00
2022-09-25T23:33:18.342Z,1.27
2022-09-25T23:35:45.753Z,0.70
2022-09-25T23:38:13.026Z,0.93
2022-09-25T23:40:40.429Z,0.70
2022-09-25T23:43:07.790Z,0.80
2022-09-25T23:45:35.136Z,0.77
2022-09-25T23:48:02.538Z,0.80
2022-09-25T23:50:29.806Z,1.00
2022-09-25T23:52:57.333Z,0.60
2022-09-25T23:55:24.602Z,0.80
2022-09-25T23:57:51.926Z,0.70
